METAR Data

Data at: 2255 UTC 26 Feb 2020

METAR for:KMTP (Montauk Arpt, NY, US)
Text:KMTP 262154Z AUTO 08004KT 07/05 A2993 RMK AO1 SLP135 T00720050
Temperature: 7.2°C ( 45°F)
Dewpoint: 5.0°C ( 41°F) [RH = 86%]
Pressure (altimeter):29.93 inches Hg (1013.6 mb) [Sea level pressure: 1013.5 mb]
Winds:from the E (80 degrees) at 5 MPH (4 knots; 2.1 m/s)
QC Flag:automated observation with no human augmentation